sensor_id;sensor_type;location;lat;lon;timestamp;P1;durP1;ratioP1;P2;durP2;ratioP2
73850;SDS011;62190;51.548;5.688;2023-07-30T00:00:03;11.10;;;4.03;;
73850;SDS011;62190;51.548;5.688;2023-07-30T00:02:32;16.65;;;4.53;;
73850;SDS011;62190;51.548;5.688;2023-07-30T00:05:00;10.75;;;3.85;;
73850;SDS011;62190;51.548;5.688;2023-07-30T00:07:28;12.40;;;4.65;;
73850;SDS011;62190;51.548;5.688;2023-07-30T00:09:56;11.73;;;3.58;;
73850;SDS011;62190;51.548;5.688;2023-07-30T00:12:23;15.13;;;3.75;;
73850;SDS011;62190;51.548;5.688;2023-07-30T00:14:50;10.53;;;3.77;;
73850;SDS011;62190;51.548;5.688;2023-07-30T00:17:18;10.72;;;4.45;;
73850;SDS011;62190;51.548;5.688;2023-07-30T00:19:46;14.10;;;4.37;;
73850;SDS011;62190;51.548;5.688;2023-07-30T00:22:14;11.38;;;4.20;;
73850;SDS011;62190;51.548;5.688;2023-07-30T00:24:41;11.63;;;3.95;;
73850;SDS011;62190;51.548;5.688;2023-07-30T00:27:09;13.55;;;3.87;;
73850;SDS011;62190;51.548;5.688;2023-07-30T00:29:36;10.82;;;3.33;;
73850;SDS011;62190;51.548;5.688;2023-07-30T00:32:03;9.20;;;4.05;;
73850;SDS011;62190;51.548;5.688;2023-07-30T00:34:31;13.03;;;3.98;;
73850;SDS011;62190;51.548;5.688;2023-07-30T00:36:58;10.50;;;3.95;;
73850;SDS011;62190;51.548;5.688;2023-07-30T00:39:26;12.35;;;3.60;;
73850;SDS011;62190;51.548;5.688;2023-07-30T00:41:53;8.60;;;3.35;;
73850;SDS011;62190;51.548;5.688;2023-07-30T00:44:20;12.95;;;3.80;;
73850;SDS011;62190;51.548;5.688;2023-07-30T00:46:48;10.20;;;3.80;;
73850;SDS011;62190;51.548;5.688;2023-07-30T00:49:16;13.62;;;4.10;;
73850;SDS011;62190;51.548;5.688;2023-07-30T00:51:44;12.82;;;4.95;;
73850;SDS011;62190;51.548;5.688;2023-07-30T00:54:12;9.50;;;3.52;;
73850;SDS011;62190;51.548;5.688;2023-07-30T00:56:41;14.18;;;4.22;;
73850;SDS011;62190;51.548;5.688;2023-07-30T00:59:11;13.18;;;4.97;;
73850;SDS011;62190;51.548;5.688;2023-07-30T01:01:38;12.98;;;4.87;;
73850;SDS011;62190;51.548;5.688;2023-07-30T01:04:07;10.05;;;4.10;;
73850;SDS011;62190;51.548;5.688;2023-07-30T01:06:36;16.15;;;4.65;;
73850;SDS011;62190;51.548;5.688;2023-07-30T01:09:04;11.40;;;4.40;;
73850;SDS011;62190;51.548;5.688;2023-07-30T01:11:31;10.58;;;3.95;;
73850;SDS011;62190;51.548;5.688;2023-07-30T01:13:58;10.63;;;4.17;;
73850;SDS011;62190;51.548;5.688;2023-07-30T01:16:26;11.88;;;4.33;;
73850;SDS011;62190;51.548;5.688;2023-07-30T01:18:53;16.07;;;4.78;;
73850;SDS011;62190;51.548;5.688;2023-07-30T01:21:22;12.85;;;3.62;;
73850;SDS011;62190;51.548;5.688;2023-07-30T01:23:49;11.88;;;3.85;;
73850;SDS011;62190;51.548;5.688;2023-07-30T01:26:19;10.88;;;4.53;;
73850;SDS011;62190;51.548;5.688;2023-07-30T01:28:54;7.70;;;4.45;;
73850;SDS011;62190;51.548;5.688;2023-07-30T01:31:23;10.38;;;4.60;;
73850;SDS011;62190;51.548;5.688;2023-07-30T01:33:52;13.13;;;4.17;;
73850;SDS011;62190;51.548;5.688;2023-07-30T01:36:22;10.60;;;4.95;;
73850;SDS011;62190;51.548;5.688;2023-07-30T01:38:50;10.38;;;4.87;;
73850;SDS011;62190;51.548;5.688;2023-07-30T01:41:18;10.05;;;4.08;;
73850;SDS011;62190;51.548;5.688;2023-07-30T01:43:47;15.05;;;4.42;;
73850;SDS011;62190;51.548;5.688;2023-07-30T01:46:14;12.45;;;3.72;;
73850;SDS011;62190;51.548;5.688;2023-07-30T01:48:42;13.62;;;4.15;;
73850;SDS011;62190;51.548;5.688;2023-07-30T01:51:09;13.88;;;4.60;;
73850;SDS011;62190;51.548;5.688;2023-07-30T01:53:37;13.22;;;4.42;;
73850;SDS011;62190;51.548;5.688;2023-07-30T01:56:05;10.78;;;4.40;;
73850;SDS011;62190;51.548;5.688;2023-07-30T01:58:32;8.78;;;4.08;;
73850;SDS011;62190;51.548;5.688;2023-07-30T02:01:01;11.05;;;4.50;;
73850;SDS011;62190;51.548;5.688;2023-07-30T02:03:28;9.98;;;4.25;;
73850;SDS011;62190;51.548;5.688;2023-07-30T02:05:57;20.35;;;4.65;;
73850;SDS011;62190;51.548;5.688;2023-07-30T02:08:24;14.58;;;5.47;;
73850;SDS011;62190;51.548;5.688;2023-07-30T02:10:58;14.15;;;4.97;;
73850;SDS011;62190;51.548;5.688;2023-07-30T02:13:25;16.85;;;4.97;;
73850;SDS011;62190;51.548;5.688;2023-07-30T02:15:53;14.63;;;5.10;;
73850;SDS011;62190;51.548;5.688;2023-07-30T02:18:22;12.80;;;4.50;;
73850;SDS011;62190;51.548;5.688;2023-07-30T02:20:50;12.40;;;4.85;;
73850;SDS011;62190;51.548;5.688;2023-07-30T02:23:19;9.23;;;4.78;;
73850;SDS011;62190;51.548;5.688;2023-07-30T02:25:48;12.93;;;4.62;;
73850;SDS011;62190;51.548;5.688;2023-07-30T02:28:15;17.30;;;5.12;;
73850;SDS011;62190;51.548;5.688;2023-07-30T02:30:42;12.73;;;4.83;;
73850;SDS011;62190;51.548;5.688;2023-07-30T02:33:10;14.83;;;5.00;;
73850;SDS011;62190;51.548;5.688;2023-07-30T02:35:37;14.33;;;4.67;;
73850;SDS011;62190;51.548;5.688;2023-07-30T02:38:05;15.78;;;4.92;;
73850;SDS011;62190;51.548;5.688;2023-07-30T02:40:32;12.18;;;4.45;;
73850;SDS011;62190;51.548;5.688;2023-07-30T02:42:59;15.18;;;5.10;;
73850;SDS011;62190;51.548;5.688;2023-07-30T02:45:27;13.68;;;5.10;;
73850;SDS011;62190;51.548;5.688;2023-07-30T02:47:54;14.03;;;5.05;;
73850;SDS011;62190;51.548;5.688;2023-07-30T02:50:21;19.82;;;5.53;;
73850;SDS011;62190;51.548;5.688;2023-07-30T02:52:49;14.43;;;4.97;;
73850;SDS011;62190;51.548;5.688;2023-07-30T02:55:18;19.37;;;6.33;;
73850;SDS011;62190;51.548;5.688;2023-07-30T02:57:47;18.95;;;5.25;;
73850;SDS011;62190;51.548;5.688;2023-07-30T03:00:14;15.18;;;6.28;;
73850;SDS011;62190;51.548;5.688;2023-07-30T03:02:41;20.17;;;5.70;;
73850;SDS011;62190;51.548;5.688;2023-07-30T03:05:09;18.80;;;7.20;;
73850;SDS011;62190;51.548;5.688;2023-07-30T03:07:36;15.38;;;6.30;;
73850;SDS011;62190;51.548;5.688;2023-07-30T03:10:04;13.15;;;5.47;;
73850;SDS011;62190;51.548;5.688;2023-07-30T03:12:33;13.48;;;5.72;;
73850;SDS011;62190;51.548;5.688;2023-07-30T03:15:00;20.23;;;6.83;;
73850;SDS011;62190;51.548;5.688;2023-07-30T03:17:27;21.57;;;7.75;;
73850;SDS011;62190;51.548;5.688;2023-07-30T03:19:57;15.72;;;6.80;;
73850;SDS011;62190;51.548;5.688;2023-07-30T03:22:24;17.25;;;6.97;;
73850;SDS011;62190;51.548;5.688;2023-07-30T03:24:51;20.17;;;8.73;;
73850;SDS011;62190;51.548;5.688;2023-07-30T03:27:19;19.52;;;7.83;;
73850;SDS011;62190;51.548;5.688;2023-07-30T03:29:46;21.62;;;7.97;;
73850;SDS011;62190;51.548;5.688;2023-07-30T03:32:13;22.40;;;7.80;;
73850;SDS011;62190;51.548;5.688;2023-07-30T03:34:41;22.82;;;9.20;;
73850;SDS011;62190;51.548;5.688;2023-07-30T03:37:08;19.98;;;8.48;;
73850;SDS011;62190;51.548;5.688;2023-07-30T03:39:35;25.10;;;7.92;;
73850;SDS011;62190;51.548;5.688;2023-07-30T03:42:03;20.97;;;8.15;;
73850;SDS011;62190;51.548;5.688;2023-07-30T03:44:32;21.93;;;9.00;;
73850;SDS011;62190;51.548;5.688;2023-07-30T03:46:59;19.98;;;8.30;;
73850;SDS011;62190;51.548;5.688;2023-07-30T03:49:27;25.88;;;9.00;;
73850;SDS011;62190;51.548;5.688;2023-07-30T03:51:54;24.00;;;8.03;;
73850;SDS011;62190;51.548;5.688;2023-07-30T03:54:21;25.10;;;8.88;;
73850;SDS011;62190;51.548;5.688;2023-07-30T03:56:50;18.25;;;6.78;;
73850;SDS011;62190;51.548;5.688;2023-07-30T03:59:17;15.25;;;6.90;;
73850;SDS011;62190;51.548;5.688;2023-07-30T04:01:45;17.42;;;6.10;;
73850;SDS011;62190;51.548;5.688;2023-07-30T04:04:12;18.87;;;6.50;;
73850;SDS011;62190;51.548;5.688;2023-07-30T04:06:40;20.97;;;6.55;;
73850;SDS011;62190;51.548;5.688;2023-07-30T04:09:09;13.75;;;6.05;;
73850;SDS011;62190;51.548;5.688;2023-07-30T04:11:36;17.12;;;6.30;;
73850;SDS011;62190;51.548;5.688;2023-07-30T04:14:03;25.17;;;7.80;;
73850;SDS011;62190;51.548;5.688;2023-07-30T04:16:32;23.87;;;7.40;;
73850;SDS011;62190;51.548;5.688;2023-07-30T04:19:00;20.25;;;7.55;;
73850;SDS011;62190;51.548;5.688;2023-07-30T04:21:28;24.12;;;8.00;;
73850;SDS011;62190;51.548;5.688;2023-07-30T04:23:56;18.87;;;7.30;;
73850;SDS011;62190;51.548;5.688;2023-07-30T04:26:25;15.18;;;6.33;;
73850;SDS011;62190;51.548;5.688;2023-07-30T04:28:54;20.15;;;7.05;;
73850;SDS011;62190;51.548;5.688;2023-07-30T04:31:25;24.27;;;7.10;;
73850;SDS011;62190;51.548;5.688;2023-07-30T04:33:52;18.95;;;7.47;;
73850;SDS011;62190;51.548;5.688;2023-07-30T04:36:19;21.30;;;6.92;;
73850;SDS011;62190;51.548;5.688;2023-07-30T04:38:46;16.02;;;6.65;;
73850;SDS011;62190;51.548;5.688;2023-07-30T04:41:17;25.00;;;6.78;;
73850;SDS011;62190;51.548;5.688;2023-07-30T04:43:46;20.48;;;7.15;;
73850;SDS011;62190;51.548;5.688;2023-07-30T04:46:13;24.00;;;6.05;;
73850;SDS011;62190;51.548;5.688;2023-07-30T04:48:40;15.30;;;5.90;;
73850;SDS011;62190;51.548;5.688;2023-07-30T04:51:08;19.92;;;6.58;;
73850;SDS011;62190;51.548;5.688;2023-07-30T04:53:35;21.30;;;6.92;;
73850;SDS011;62190;51.548;5.688;2023-07-30T04:56:02;14.55;;;6.55;;
73850;SDS011;62190;51.548;5.688;2023-07-30T04:58:30;14.55;;;6.00;;
73850;SDS011;62190;51.548;5.688;2023-07-30T05:00:57;23.42;;;7.95;;
73850;SDS011;62190;51.548;5.688;2023-07-30T05:03:27;18.98;;;8.43;;
73850;SDS011;62190;51.548;5.688;2023-07-30T05:05:54;24.95;;;7.55;;
73850;SDS011;62190;51.548;5.688;2023-07-30T05:08:22;20.75;;;7.95;;
73850;SDS011;62190;51.548;5.688;2023-07-30T05:10:49;22.60;;;7.20;;
73850;SDS011;62190;51.548;5.688;2023-07-30T05:13:16;23.42;;;8.38;;
73850;SDS011;62190;51.548;5.688;2023-07-30T05:15:44;18.37;;;7.28;;
73850;SDS011;62190;51.548;5.688;2023-07-30T05:18:12;21.87;;;8.03;;
73850;SDS011;62190;51.548;5.688;2023-07-30T05:20:40;18.10;;;7.25;;
73850;SDS011;62190;51.548;5.688;2023-07-30T05:23:07;20.77;;;8.60;;
73850;SDS011;62190;51.548;5.688;2023-07-30T05:25:36;25.10;;;8.40;;
73850;SDS011;62190;51.548;5.688;2023-07-30T05:28:04;17.82;;;8.30;;
73850;SDS011;62190;51.548;5.688;2023-07-30T05:30:32;19.35;;;8.13;;
73850;SDS011;62190;51.548;5.688;2023-07-30T05:32:59;16.17;;;7.65;;
73850;SDS011;62190;51.548;5.688;2023-07-30T05:35:30;19.05;;;7.00;;
73850;SDS011;62190;51.548;5.688;2023-07-30T05:37:57;25.85;;;8.80;;
73850;SDS011;62190;51.548;5.688;2023-07-30T05:40:24;19.07;;;7.50;;
73850;SDS011;62190;51.548;5.688;2023-07-30T05:42:52;19.07;;;7.72;;
73850;SDS011;62190;51.548;5.688;2023-07-30T05:45:21;20.40;;;8.70;;
73850;SDS011;62190;51.548;5.688;2023-07-30T05:47:48;24.05;;;7.28;;
73850;SDS011;62190;51.548;5.688;2023-07-30T05:50:15;19.02;;;6.67;;
73850;SDS011;62190;51.548;5.688;2023-07-30T05:52:43;17.45;;;7.72;;
73850;SDS011;62190;51.548;5.688;2023-07-30T05:55:10;18.57;;;7.22;;
73850;SDS011;62190;51.548;5.688;2023-07-30T05:57:37;25.85;;;8.15;;
73850;SDS011;62190;51.548;5.688;2023-07-30T06:00:05;14.98;;;6.60;;
73850;SDS011;62190;51.548;5.688;2023-07-30T06:02:34;15.30;;;7.83;;
73850;SDS011;62190;51.548;5.688;2023-07-30T06:05:01;21.50;;;7.62;;
73850;SDS011;62190;51.548;5.688;2023-07-30T06:07:29;16.82;;;7.35;;
73850;SDS011;62190;51.548;5.688;2023-07-30T06:09:58;26.82;;;8.08;;
73850;SDS011;62190;51.548;5.688;2023-07-30T06:12:25;28.15;;;8.70;;
73850;SDS011;62190;51.548;5.688;2023-07-30T06:14:52;22.42;;;8.08;;
73850;SDS011;62190;51.548;5.688;2023-07-30T06:17:20;21.68;;;8.08;;
73850;SDS011;62190;51.548;5.688;2023-07-30T06:19:47;20.90;;;7.67;;
73850;SDS011;62190;51.548;5.688;2023-07-30T06:22:14;20.08;;;7.30;;
73850;SDS011;62190;51.548;5.688;2023-07-30T06:24:42;24.37;;;8.95;;
73850;SDS011;62190;51.548;5.688;2023-07-30T06:27:10;17.87;;;7.28;;
73850;SDS011;62190;51.548;5.688;2023-07-30T06:29:37;21.17;;;8.80;;
73850;SDS011;62190;51.548;5.688;2023-07-30T06:32:05;24.95;;;8.38;;
73850;SDS011;62190;51.548;5.688;2023-07-30T06:34:33;30.02;;;8.83;;
73850;SDS011;62190;51.548;5.688;2023-07-30T06:37:00;21.07;;;8.63;;
73850;SDS011;62190;51.548;5.688;2023-07-30T06:39:27;22.02;;;8.43;;
73850;SDS011;62190;51.548;5.688;2023-07-30T06:41:55;23.57;;;8.65;;
73850;SDS011;62190;51.548;5.688;2023-07-30T06:44:22;22.07;;;8.30;;
73850;SDS011;62190;51.548;5.688;2023-07-30T06:46:51;21.33;;;8.80;;
73850;SDS011;62190;51.548;5.688;2023-07-30T06:49:18;28.35;;;8.90;;
73850;SDS011;62190;51.548;5.688;2023-07-30T06:51:45;22.73;;;8.75;;
73850;SDS011;62190;51.548;5.688;2023-07-30T06:54:13;17.48;;;7.35;;
73850;SDS011;62190;51.548;5.688;2023-07-30T06:56:40;23.35;;;6.90;;
73850;SDS011;62190;51.548;5.688;2023-07-30T06:59:07;23.02;;;7.85;;
73850;SDS011;62190;51.548;5.688;2023-07-30T07:01:35;21.42;;;7.03;;
73850;SDS011;62190;51.548;5.688;2023-07-30T07:04:02;17.27;;;6.15;;
73850;SDS011;62190;51.548;5.688;2023-07-30T07:06:29;17.20;;;6.12;;
73850;SDS011;62190;51.548;5.688;2023-07-30T07:08:57;24.35;;;6.28;;
73850;SDS011;62190;51.548;5.688;2023-07-30T07:11:24;14.93;;;4.55;;
73850;SDS011;62190;51.548;5.688;2023-07-30T07:13:51;15.08;;;4.78;;
73850;SDS011;62190;51.548;5.688;2023-07-30T07:16:19;19.82;;;5.10;;
73850;SDS011;62190;51.548;5.688;2023-07-30T07:18:46;14.10;;;4.17;;
73850;SDS011;62190;51.548;5.688;2023-07-30T07:21:14;14.15;;;4.10;;
73850;SDS011;62190;51.548;5.688;2023-07-30T07:23:42;17.10;;;4.65;;
73850;SDS011;62190;51.548;5.688;2023-07-30T07:26:09;16.20;;;3.80;;
73850;SDS011;62190;51.548;5.688;2023-07-30T07:28:38;22.37;;;5.15;;
73850;SDS011;62190;51.548;5.688;2023-07-30T07:31:05;14.43;;;3.72;;
73850;SDS011;62190;51.548;5.688;2023-07-30T07:33:33;18.05;;;3.72;;
73850;SDS011;62190;51.548;5.688;2023-07-30T07:36:03;14.65;;;3.95;;
73850;SDS011;62190;51.548;5.688;2023-07-30T07:38:32;10.38;;;2.60;;
73850;SDS011;62190;51.548;5.688;2023-07-30T07:41:00;13.10;;;3.72;;
73850;SDS011;62190;51.548;5.688;2023-07-30T07:43:27;12.47;;;3.35;;
73850;SDS011;62190;51.548;5.688;2023-07-30T07:45:55;13.88;;;3.77;;
73850;SDS011;62190;51.548;5.688;2023-07-30T07:48:24;14.55;;;3.00;;
73850;SDS011;62190;51.548;5.688;2023-07-30T07:50:51;12.60;;;2.62;;
73850;SDS011;62190;51.548;5.688;2023-07-30T07:53:18;11.20;;;3.33;;
73850;SDS011;62190;51.548;5.688;2023-07-30T07:55:45;12.75;;;3.45;;
73850;SDS011;62190;51.548;5.688;2023-07-30T07:58:13;12.80;;;2.87;;
73850;SDS011;62190;51.548;5.688;2023-07-30T08:00:40;14.68;;;2.75;;
73850;SDS011;62190;51.548;5.688;2023-07-30T08:03:07;11.40;;;2.85;;
73850;SDS011;62190;51.548;5.688;2023-07-30T08:05:34;11.80;;;2.98;;
73850;SDS011;62190;51.548;5.688;2023-07-30T08:08:02;11.57;;;2.60;;
73850;SDS011;62190;51.548;5.688;2023-07-30T08:10:29;13.45;;;3.10;;
73850;SDS011;62190;51.548;5.688;2023-07-30T08:12:57;12.07;;;3.58;;
73850;SDS011;62190;51.548;5.688;2023-07-30T08:15:24;14.10;;;2.67;;
73850;SDS011;62190;51.548;5.688;2023-07-30T08:17:52;16.30;;;3.17;;
73850;SDS011;62190;51.548;5.688;2023-07-30T08:20:19;13.75;;;3.02;;
73850;SDS011;62190;51.548;5.688;2023-07-30T08:22:46;10.23;;;3.25;;
73850;SDS011;62190;51.548;5.688;2023-07-30T08:25:13;15.20;;;2.58;;
73850;SDS011;62190;51.548;5.688;2023-07-30T08:27:41;13.10;;;3.02;;
73850;SDS011;62190;51.548;5.688;2023-07-30T08:30:08;12.05;;;2.55;;
73850;SDS011;62190;51.548;5.688;2023-07-30T08:32:36;11.85;;;2.67;;
73850;SDS011;62190;51.548;5.688;2023-07-30T08:35:04;11.43;;;2.47;;
73850;SDS011;62190;51.548;5.688;2023-07-30T08:37:31;12.93;;;2.30;;
73850;SDS011;62190;51.548;5.688;2023-07-30T08:39:59;12.73;;;2.30;;
73850;SDS011;62190;51.548;5.688;2023-07-30T08:42:26;9.10;;;3.08;;
73850;SDS011;62190;51.548;5.688;2023-07-30T08:44:53;7.92;;;2.12;;
73850;SDS011;62190;51.548;5.688;2023-07-30T08:47:21;15.95;;;3.22;;
73850;SDS011;62190;51.548;5.688;2023-07-30T08:49:48;12.98;;;2.80;;
73850;SDS011;62190;51.548;5.688;2023-07-30T08:52:15;13.90;;;3.62;;
73850;SDS011;62190;51.548;5.688;2023-07-30T08:54:43;11.20;;;3.25;;
73850;SDS011;62190;51.548;5.688;2023-07-30T08:57:12;12.33;;;2.90;;
73850;SDS011;62190;51.548;5.688;2023-07-30T08:59:42;16.75;;;3.20;;
73850;SDS011;62190;51.548;5.688;2023-07-30T09:02:11;19.00;;;3.27;;
73850;SDS011;62190;51.548;5.688;2023-07-30T09:04:39;13.68;;;2.98;;
73850;SDS011;62190;51.548;5.688;2023-07-30T09:07:08;13.72;;;2.83;;
73850;SDS011;62190;51.548;5.688;2023-07-30T09:09:36;9.23;;;3.08;;
73850;SDS011;62190;51.548;5.688;2023-07-30T09:12:04;13.72;;;3.12;;
73850;SDS011;62190;51.548;5.688;2023-07-30T09:14:32;9.10;;;3.15;;
73850;SDS011;62190;51.548;5.688;2023-07-30T09:16:59;11.75;;;2.90;;
73850;SDS011;62190;51.548;5.688;2023-07-30T09:19:26;11.57;;;2.62;;
73850;SDS011;62190;51.548;5.688;2023-07-30T09:21:54;11.12;;;3.00;;
73850;SDS011;62190;51.548;5.688;2023-07-30T09:24:21;13.53;;;2.85;;
73850;SDS011;62190;51.548;5.688;2023-07-30T09:26:49;8.95;;;3.12;;
73850;SDS011;62190;51.548;5.688;2023-07-30T09:29:16;8.23;;;2.67;;
73850;SDS011;62190;51.548;5.688;2023-07-30T09:31:47;14.83;;;3.35;;
73850;SDS011;62190;51.548;5.688;2023-07-30T09:34:17;12.43;;;2.65;;
73850;SDS011;62190;51.548;5.688;2023-07-30T09:36:46;11.28;;;2.60;;
73850;SDS011;62190;51.548;5.688;2023-07-30T09:39:14;9.08;;;3.05;;
73850;SDS011;62190;51.548;5.688;2023-07-30T09:41:46;13.90;;;2.60;;
73850;SDS011;62190;51.548;5.688;2023-07-30T09:44:16;7.08;;;1.98;;
73850;SDS011;62190;51.548;5.688;2023-07-30T09:46:45;11.08;;;2.75;;
73850;SDS011;62190;51.548;5.688;2023-07-30T09:49:14;13.25;;;2.62;;
73850;SDS011;62190;51.548;5.688;2023-07-30T09:51:42;10.80;;;2.70;;
73850;SDS011;62190;51.548;5.688;2023-07-30T09:54:10;11.78;;;3.42;;
73850;SDS011;62190;51.548;5.688;2023-07-30T09:56:39;7.35;;;1.77;;
73850;SDS011;62190;51.548;5.688;2023-07-30T09:59:08;7.90;;;1.67;;
73850;SDS011;62190;51.548;5.688;2023-07-30T10:01:36;7.97;;;1.85;;
73850;SDS011;62190;51.548;5.688;2023-07-30T10:04:07;10.20;;;1.65;;
73850;SDS011;62190;51.548;5.688;2023-07-30T10:06:36;6.55;;;1.45;;
73850;SDS011;62190;51.548;5.688;2023-07-30T10:09:08;9.43;;;1.90;;
73850;SDS011;62190;51.548;5.688;2023-07-30T10:11:36;13.08;;;2.17;;
73850;SDS011;62190;51.548;5.688;2023-07-30T10:14:04;12.90;;;2.37;;
73850;SDS011;62190;51.548;5.688;2023-07-30T10:16:32;7.40;;;1.52;;
73850;SDS011;62190;51.548;5.688;2023-07-30T10:18:59;6.83;;;1.95;;
73850;SDS011;62190;51.548;5.688;2023-07-30T10:21:27;9.33;;;2.20;;
73850;SDS011;62190;51.548;5.688;2023-07-30T10:24:03;8.78;;;1.57;;
73850;SDS011;62190;51.548;5.688;2023-07-30T10:26:32;13.38;;;2.75;;
73850;SDS011;62190;51.548;5.688;2023-07-30T10:29:18;9.28;;;2.17;;
73850;SDS011;62190;51.548;5.688;2023-07-30T10:31:55;8.57;;;1.63;;
73850;SDS011;62190;51.548;5.688;2023-07-30T10:34:22;8.13;;;1.80;;
73850;SDS011;62190;51.548;5.688;2023-07-30T10:36:52;12.03;;;1.37;;
73850;SDS011;62190;51.548;5.688;2023-07-30T10:39:26;8.00;;;1.57;;
73850;SDS011;62190;51.548;5.688;2023-07-30T10:41:55;10.23;;;1.92;;
73850;SDS011;62190;51.548;5.688;2023-07-30T10:46:54;6.28;;;1.57;;
73850;SDS011;62190;51.548;5.688;2023-07-30T10:49:22;6.25;;;1.98;;
73850;SDS011;62190;51.548;5.688;2023-07-30T10:51:51;6.60;;;1.62;;
73850;SDS011;62190;51.548;5.688;2023-07-30T10:54:19;9.90;;;1.77;;
73850;SDS011;62190;51.548;5.688;2023-07-30T10:56:46;7.87;;;1.75;;
73850;SDS011;62190;51.548;5.688;2023-07-30T10:59:14;7.30;;;1.42;;
73850;SDS011;62190;51.548;5.688;2023-07-30T11:01:43;7.72;;;1.35;;
73850;SDS011;62190;51.548;5.688;2023-07-30T11:04:12;9.88;;;1.92;;
73850;SDS011;62190;51.548;5.688;2023-07-30T11:06:46;8.13;;;2.87;;
73850;SDS011;62190;51.548;5.688;2023-07-30T11:09:22;8.53;;;2.92;;
73850;SDS011;62190;51.548;5.688;2023-07-30T11:11:51;6.05;;;3.15;;
73850;SDS011;62190;51.548;5.688;2023-07-30T11:14:20;8.45;;;3.05;;
73850;SDS011;62190;51.548;5.688;2023-07-30T11:16:51;7.42;;;2.40;;
73850;SDS011;62190;51.548;5.688;2023-07-30T11:19:21;11.05;;;3.22;;
73850;SDS011;62190;51.548;5.688;2023-07-30T11:21:49;7.45;;;1.90;;
73850;SDS011;62190;51.548;5.688;2023-07-30T11:24:19;4.62;;;1.95;;
73850;SDS011;62190;51.548;5.688;2023-07-30T11:26:58;7.50;;;1.60;;
73850;SDS011;62190;51.548;5.688;2023-07-30T11:29:26;7.58;;;1.92;;
73850;SDS011;62190;51.548;5.688;2023-07-30T11:31:56;9.38;;;2.47;;
73850;SDS011;62190;51.548;5.688;2023-07-30T11:34:25;11.30;;;2.60;;
73850;SDS011;62190;51.548;5.688;2023-07-30T11:36:53;8.28;;;2.15;;
73850;SDS011;62190;51.548;5.688;2023-07-30T11:39:21;5.17;;;2.10;;
73850;SDS011;62190;51.548;5.688;2023-07-30T11:41:50;7.17;;;2.42;;
73850;SDS011;62190;51.548;5.688;2023-07-30T11:44:34;8.73;;;2.90;;
73850;SDS011;62190;51.548;5.688;2023-07-30T11:47:04;6.03;;;2.42;;
73850;SDS011;62190;51.548;5.688;2023-07-30T11:49:32;9.48;;;2.67;;
73850;SDS011;62190;51.548;5.688;2023-07-30T11:52:05;8.25;;;2.27;;
73850;SDS011;62190;51.548;5.688;2023-07-30T11:54:35;6.80;;;1.85;;
73850;SDS011;62190;51.548;5.688;2023-07-30T11:57:02;5.95;;;1.65;;
73850;SDS011;62190;51.548;5.688;2023-07-30T11:59:33;6.53;;;1.60;;
73850;SDS011;62190;51.548;5.688;2023-07-30T12:02:01;7.83;;;1.60;;
73850;SDS011;62190;51.548;5.688;2023-07-30T12:04:43;5.58;;;1.20;;
73850;SDS011;62190;51.548;5.688;2023-07-30T12:07:10;8.05;;;1.60;;
73850;SDS011;62190;51.548;5.688;2023-07-30T12:09:42;5.75;;;1.75;;
73850;SDS011;62190;51.548;5.688;2023-07-30T12:12:09;5.37;;;1.10;;
73850;SDS011;62190;51.548;5.688;2023-07-30T12:14:44;8.45;;;1.27;;
73850;SDS011;62190;51.548;5.688;2023-07-30T12:17:17;2.50;;;0.80;;
73850;SDS011;62190;51.548;5.688;2023-07-30T12:19:44;4.70;;;1.00;;
73850;SDS011;62190;51.548;5.688;2023-07-30T12:22:11;7.72;;;1.37;;
73850;SDS011;62190;51.548;5.688;2023-07-30T12:24:41;4.08;;;1.00;;
73850;SDS011;62190;51.548;5.688;2023-07-30T12:27:08;5.12;;;1.47;;
73850;SDS011;62190;51.548;5.688;2023-07-30T12:29:37;4.45;;;0.90;;
73850;SDS011;62190;51.548;5.688;2023-07-30T12:32:04;2.98;;;0.93;;
73850;SDS011;62190;51.548;5.688;2023-07-30T12:34:32;6.17;;;1.32;;
73850;SDS011;62190;51.548;5.688;2023-07-30T12:36:59;3.75;;;0.72;;
73850;SDS011;62190;51.548;5.688;2023-07-30T12:39:27;4.70;;;1.40;;
73850;SDS011;62190;51.548;5.688;2023-07-30T12:41:54;3.40;;;0.90;;
73850;SDS011;62190;51.548;5.688;2023-07-30T12:44:21;5.25;;;0.70;;
73850;SDS011;62190;51.548;5.688;2023-07-30T12:46:49;4.83;;;1.22;;
73850;SDS011;62190;51.548;5.688;2023-07-30T12:49:16;4.37;;;0.93;;
73850;SDS011;62190;51.548;5.688;2023-07-30T12:51:45;4.42;;;1.12;;
73850;SDS011;62190;51.548;5.688;2023-07-30T12:54:12;4.20;;;1.00;;
73850;SDS011;62190;51.548;5.688;2023-07-30T12:56:40;5.72;;;1.02;;
73850;SDS011;62190;51.548;5.688;2023-07-30T12:59:07;6.42;;;1.20;;
73850;SDS011;62190;51.548;5.688;2023-07-30T13:01:34;3.08;;;0.70;;
73850;SDS011;62190;51.548;5.688;2023-07-30T13:04:02;4.37;;;1.27;;
73850;SDS011;62190;51.548;5.688;2023-07-30T13:06:31;3.98;;;1.00;;
73850;SDS011;62190;51.548;5.688;2023-07-30T13:08:58;6.15;;;1.00;;
73850;SDS011;62190;51.548;5.688;2023-07-30T13:11:26;4.03;;;1.10;;
73850;SDS011;62190;51.548;5.688;2023-07-30T13:13:54;3.60;;;0.75;;
73850;SDS011;62190;51.548;5.688;2023-07-30T13:16:22;5.10;;;1.15;;
73850;SDS011;62190;51.548;5.688;2023-07-30T13:18:49;3.58;;;0.98;;
73850;SDS011;62190;51.548;5.688;2023-07-30T13:21:18;5.12;;;1.30;;
73850;SDS011;62190;51.548;5.688;2023-07-30T13:23:46;5.25;;;1.82;;
73850;SDS011;62190;51.548;5.688;2023-07-30T13:26:14;5.80;;;0.95;;
73850;SDS011;62190;51.548;5.688;2023-07-30T13:28:41;3.02;;;0.88;;
73850;SDS011;62190;51.548;5.688;2023-07-30T13:31:08;6.28;;;1.30;;
73850;SDS011;62190;51.548;5.688;2023-07-30T13:33:36;7.33;;;1.02;;
73850;SDS011;62190;51.548;5.688;2023-07-30T13:36:05;5.80;;;1.42;;
73850;SDS011;62190;51.548;5.688;2023-07-30T13:38:34;6.05;;;0.70;;
73850;SDS011;62190;51.548;5.688;2023-07-30T13:41:04;3.40;;;0.70;;
73850;SDS011;62190;51.548;5.688;2023-07-30T13:43:36;3.27;;;0.80;;
73850;SDS011;62190;51.548;5.688;2023-07-30T13:46:02;3.92;;;1.00;;
73850;SDS011;62190;51.548;5.688;2023-07-30T13:48:31;2.17;;;0.70;;
73850;SDS011;62190;51.548;5.688;2023-07-30T13:50:59;4.03;;;0.70;;
73850;SDS011;62190;51.548;5.688;2023-07-30T13:53:27;3.22;;;0.57;;
73850;SDS011;62190;51.548;5.688;2023-07-30T13:55:55;3.33;;;0.50;;
73850;SDS011;62190;51.548;5.688;2023-07-30T13:58:22;3.08;;;0.60;;
73850;SDS011;62190;51.548;5.688;2023-07-30T14:00:53;3.98;;;0.78;;
73850;SDS011;62190;51.548;5.688;2023-07-30T14:03:20;2.80;;;0.80;;
73850;SDS011;62190;51.548;5.688;2023-07-30T14:05:50;6.20;;;0.85;;
73850;SDS011;62190;51.548;5.688;2023-07-30T14:08:17;4.50;;;0.90;;
73850;SDS011;62190;51.548;5.688;2023-07-30T14:10:44;4.50;;;0.60;;
73850;SDS011;62190;51.548;5.688;2023-07-30T14:13:13;3.10;;;0.55;;
73850;SDS011;62190;51.548;5.688;2023-07-30T14:15:42;4.67;;;0.88;;
73850;SDS011;62190;51.548;5.688;2023-07-30T14:18:09;4.12;;;0.72;;
73850;SDS011;62190;51.548;5.688;2023-07-30T14:20:37;4.70;;;0.45;;
73850;SDS011;62190;51.548;5.688;2023-07-30T14:23:04;4.33;;;1.17;;
73850;SDS011;62190;51.548;5.688;2023-07-30T14:25:32;2.90;;;0.60;;
73850;SDS011;62190;51.548;5.688;2023-07-30T14:27:59;6.37;;;1.15;;
73850;SDS011;62190;51.548;5.688;2023-07-30T14:30:28;3.58;;;1.00;;
73850;SDS011;62190;51.548;5.688;2023-07-30T14:32:58;6.17;;;1.05;;
73850;SDS011;62190;51.548;5.688;2023-07-30T14:35:25;4.20;;;0.70;;
73850;SDS011;62190;51.548;5.688;2023-07-30T14:37:55;4.72;;;0.60;;
73850;SDS011;62190;51.548;5.688;2023-07-30T14:40:23;8.48;;;1.37;;
73850;SDS011;62190;51.548;5.688;2023-07-30T14:42:50;5.25;;;1.02;;
73850;SDS011;62190;51.548;5.688;2023-07-30T14:45:17;5.20;;;0.80;;